sensor_id;sensor_type;location;lat;lon;timestamp;temperature;humidity
21047;DHT22;10682;50.874;3.656;2023-02-28T00:01:36;-0.60;99.90
21047;DHT22;10682;50.874;3.656;2023-02-28T00:04:03;-0.60;99.90
21047;DHT22;10682;50.874;3.656;2023-02-28T00:06:31;-0.60;99.90
21047;DHT22;10682;50.874;3.656;2023-02-28T00:08:58;-0.60;99.90
21047;DHT22;10682;50.874;3.656;2023-02-28T00:11:25;-0.60;99.90
21047;DHT22;10682;50.874;3.656;2023-02-28T00:13:52;-0.60;99.90
21047;DHT22;10682;50.874;3.656;2023-02-28T00:16:22;-0.60;99.90
21047;DHT22;10682;50.874;3.656;2023-02-28T00:18:49;-0.60;99.90
21047;DHT22;10682;50.874;3.656;2023-02-28T00:21:17;-0.60;99.90
21047;DHT22;10682;50.874;3.656;2023-02-28T00:23:45;-0.70;99.90
21047;DHT22;10682;50.874;3.656;2023-02-28T00:26:13;-0.70;99.90
21047;DHT22;10682;50.874;3.656;2023-02-28T00:28:40;-0.80;99.90
21047;DHT22;10682;50.874;3.656;2023-02-28T00:31:07;-0.90;99.90
21047;DHT22;10682;50.874;3.656;2023-02-28T00:33:35;-0.80;99.90
21047;DHT22;10682;50.874;3.656;2023-02-28T00:36:07;-0.90;99.90
21047;DHT22;10682;50.874;3.656;2023-02-28T00:38:37;-0.90;99.90
21047;DHT22;10682;50.874;3.656;2023-02-28T00:41:06;-0.90;99.90
21047;DHT22;10682;50.874;3.656;2023-02-28T00:43:35;-1.00;99.90
21047;DHT22;10682;50.874;3.656;2023-02-28T00:46:04;-1.00;99.90
21047;DHT22;10682;50.874;3.656;2023-02-28T00:48:32;-1.10;99.90
21047;DHT22;10682;50.874;3.656;2023-02-28T00:50:59;-1.10;99.90
21047;DHT22;10682;50.874;3.656;2023-02-28T00:53:27;-1.10;99.90
21047;DHT22;10682;50.874;3.656;2023-02-28T00:55:54;-1.10;99.90
21047;DHT22;10682;50.874;3.656;2023-02-28T00:58:21;-1.20;99.90
21047;DHT22;10682;50.874;3.656;2023-02-28T01:00:49;-1.20;99.90
21047;DHT22;10682;50.874;3.656;2023-02-28T01:03:30;-1.20;99.90
21047;DHT22;10682;50.874;3.656;2023-02-28T01:05:57;-1.20;99.90
21047;DHT22;10682;50.874;3.656;2023-02-28T01:08:37;-1.30;99.90
21047;DHT22;10682;50.874;3.656;2023-02-28T01:11:12;-1.30;99.90
21047;DHT22;10682;50.874;3.656;2023-02-28T01:13:41;-1.30;99.90
21047;DHT22;10682;50.874;3.656;2023-02-28T01:16:08;-1.30;99.90
21047;DHT22;10682;50.874;3.656;2023-02-28T01:18:36;-1.30;99.90
21047;DHT22;10682;50.874;3.656;2023-02-28T01:21:05;-1.30;99.90
21047;DHT22;10682;50.874;3.656;2023-02-28T01:23:34;-1.40;99.90
21047;DHT22;10682;50.874;3.656;2023-02-28T01:26:18;-1.40;99.90
21047;DHT22;10682;50.874;3.656;2023-02-28T01:28:48;-1.40;99.90
21047;DHT22;10682;50.874;3.656;2023-02-28T01:31:18;-1.50;99.90
21047;DHT22;10682;50.874;3.656;2023-02-28T01:33:45;-1.50;99.90
21047;DHT22;10682;50.874;3.656;2023-02-28T01:36:15;-1.50;99.90
21047;DHT22;10682;50.874;3.656;2023-02-28T01:38:47;-1.50;99.90
21047;DHT22;10682;50.874;3.656;2023-02-28T01:41:20;-1.50;99.90
21047;DHT22;10682;50.874;3.656;2023-02-28T01:46:16;-1.60;99.90
21047;DHT22;10682;50.874;3.656;2023-02-28T01:48:51;-1.70;99.90
21047;DHT22;10682;50.874;3.656;2023-02-28T01:51:37;-1.70;99.90
21047;DHT22;10682;50.874;3.656;2023-02-28T01:54:29;-1.70;99.90
21047;DHT22;10682;50.874;3.656;2023-02-28T01:57:02;-1.70;99.90
21047;DHT22;10682;50.874;3.656;2023-02-28T01:59:50;-1.70;99.90
21047;DHT22;10682;50.874;3.656;2023-02-28T02:02:21;-1.70;99.90
21047;DHT22;10682;50.874;3.656;2023-02-28T02:05:11;-1.70;99.90
21047;DHT22;10682;50.874;3.656;2023-02-28T02:07:41;-1.70;99.90
21047;DHT22;10682;50.874;3.656;2023-02-28T02:10:19;-1.70;99.90
21047;DHT22;10682;50.874;3.656;2023-02-28T02:16:31;-1.70;99.90
21047;DHT22;10682;50.874;3.656;2023-02-28T02:36:35;-1.90;99.90
21047;DHT22;10682;50.874;3.656;2023-02-28T02:39:19;-1.90;99.90
21047;DHT22;10682;50.874;3.656;2023-02-28T02:42:01;-2.00;99.90
21047;DHT22;10682;50.874;3.656;2023-02-28T02:45:45;-2.10;99.90
21047;DHT22;10682;50.874;3.656;2023-02-28T02:47:56;-2.10;99.90
21047;DHT22;10682;50.874;3.656;2023-02-28T02:50:31;-2.10;99.90
21047;DHT22;10682;50.874;3.656;2023-02-28T02:53:03;-2.10;99.90
21047;DHT22;10682;50.874;3.656;2023-02-28T02:55:35;-2.20;99.90
21047;DHT22;10682;50.874;3.656;2023-02-28T02:58:07;-2.20;99.90
21047;DHT22;10682;50.874;3.656;2023-02-28T03:00:42;-2.20;99.90
21047;DHT22;10682;50.874;3.656;2023-02-28T03:03:13;-2.30;99.90
21047;DHT22;10682;50.874;3.656;2023-02-28T03:05:50;-2.30;99.90
21047;DHT22;10682;50.874;3.656;2023-02-28T03:08:17;-2.20;99.90
21047;DHT22;10682;50.874;3.656;2023-02-28T03:10:48;-2.20;99.90
21047;DHT22;10682;50.874;3.656;2023-02-28T03:22:43;-2.30;99.90
21047;DHT22;10682;50.874;3.656;2023-02-28T03:25:41;-2.40;99.90
21047;DHT22;10682;50.874;3.656;2023-02-28T03:28:52;-2.40;99.90
21047;DHT22;10682;50.874;3.656;2023-02-28T03:31:37;-2.40;99.90
21047;DHT22;10682;50.874;3.656;2023-02-28T03:34:12;-2.40;99.90
21047;DHT22;10682;50.874;3.656;2023-02-28T03:36:47;-2.40;99.90
21047;DHT22;10682;50.874;3.656;2023-02-28T03:39:18;-2.40;99.90
21047;DHT22;10682;50.874;3.656;2023-02-28T03:41:53;-2.40;99.90
21047;DHT22;10682;50.874;3.656;2023-02-28T03:47:19;-2.50;99.90
21047;DHT22;10682;50.874;3.656;2023-02-28T03:50:43;-2.60;99.90
21047;DHT22;10682;50.874;3.656;2023-02-28T03:53:11;-2.60;99.90
21047;DHT22;10682;50.874;3.656;2023-02-28T03:59:29;-2.70;99.90
21047;DHT22;10682;50.874;3.656;2023-02-28T04:02:04;-2.70;99.90
21047;DHT22;10682;50.874;3.656;2023-02-28T04:04:32;-2.70;99.90
21047;DHT22;10682;50.874;3.656;2023-02-28T04:07:07;-2.80;99.90
21047;DHT22;10682;50.874;3.656;2023-02-28T04:09:35;-2.80;99.90
21047;DHT22;10682;50.874;3.656;2023-02-28T04:12:02;-2.80;99.90
21047;DHT22;10682;50.874;3.656;2023-02-28T04:14:30;-2.80;99.90
21047;DHT22;10682;50.874;3.656;2023-02-28T04:16:57;-2.80;99.90
21047;DHT22;10682;50.874;3.656;2023-02-28T04:19:24;-2.80;99.90
21047;DHT22;10682;50.874;3.656;2023-02-28T04:21:52;-2.80;99.90
21047;DHT22;10682;50.874;3.656;2023-02-28T04:24:23;-2.70;99.90
21047;DHT22;10682;50.874;3.656;2023-02-28T04:26:54;-2.70;99.90
21047;DHT22;10682;50.874;3.656;2023-02-28T04:29:28;-2.70;99.90
21047;DHT22;10682;50.874;3.656;2023-02-28T04:31:56;-2.70;99.90
21047;DHT22;10682;50.874;3.656;2023-02-28T04:34:32;-2.60;99.90
21047;DHT22;10682;50.874;3.656;2023-02-28T04:36:59;-2.60;99.90
21047;DHT22;10682;50.874;3.656;2023-02-28T04:39:40;-2.60;99.90
21047;DHT22;10682;50.874;3.656;2023-02-28T04:42:08;-2.50;99.90
21047;DHT22;10682;50.874;3.656;2023-02-28T04:44:35;-2.50;99.90
21047;DHT22;10682;50.874;3.656;2023-02-28T04:47:02;-2.50;99.90
21047;DHT22;10682;50.874;3.656;2023-02-28T04:49:29;-2.50;99.90
21047;DHT22;10682;50.874;3.656;2023-02-28T04:51:56;-2.40;99.90
21047;DHT22;10682;50.874;3.656;2023-02-28T04:54:23;-2.40;99.90
21047;DHT22;10682;50.874;3.656;2023-02-28T04:56:51;-2.30;99.90
21047;DHT22;10682;50.874;3.656;2023-02-28T04:59:18;-2.20;99.90
21047;DHT22;10682;50.874;3.656;2023-02-28T05:01:47;-2.10;99.90
21047;DHT22;10682;50.874;3.656;2023-02-28T05:04:15;-2.00;99.90
21047;DHT22;10682;50.874;3.656;2023-02-28T05:06:43;-1.80;99.90
21047;DHT22;10682;50.874;3.656;2023-02-28T05:09:10;-1.70;99.90
21047;DHT22;10682;50.874;3.656;2023-02-28T05:11:38;-1.60;99.90
21047;DHT22;10682;50.874;3.656;2023-02-28T05:14:14;-1.50;99.90
21047;DHT22;10682;50.874;3.656;2023-02-28T05:16:42;-1.40;99.90
21047;DHT22;10682;50.874;3.656;2023-02-28T05:19:09;-1.30;99.90
21047;DHT22;10682;50.874;3.656;2023-02-28T05:21:39;-1.20;99.90
21047;DHT22;10682;50.874;3.656;2023-02-28T05:24:10;-1.20;99.90
21047;DHT22;10682;50.874;3.656;2023-02-28T05:26:40;-1.10;99.90
21047;DHT22;10682;50.874;3.656;2023-02-28T05:29:09;-1.00;99.90
21047;DHT22;10682;50.874;3.656;2023-02-28T05:31:36;-1.00;99.90
21047;DHT22;10682;50.874;3.656;2023-02-28T05:34:04;-1.00;99.90
21047;DHT22;10682;50.874;3.656;2023-02-28T05:36:31;-0.90;99.90
21047;DHT22;10682;50.874;3.656;2023-02-28T05:38:59;-0.90;99.90
21047;DHT22;10682;50.874;3.656;2023-02-28T05:41:26;-0.80;99.90
21047;DHT22;10682;50.874;3.656;2023-02-28T05:43:54;-0.80;99.90
21047;DHT22;10682;50.874;3.656;2023-02-28T05:46:21;-0.70;99.90
21047;DHT22;10682;50.874;3.656;2023-02-28T05:48:48;-0.70;99.90
21047;DHT22;10682;50.874;3.656;2023-02-28T05:51:16;-0.60;99.90
21047;DHT22;10682;50.874;3.656;2023-02-28T05:53:43;-0.60;99.90
21047;DHT22;10682;50.874;3.656;2023-02-28T05:56:10;-0.60;99.90
21047;DHT22;10682;50.874;3.656;2023-02-28T05:58:37;-0.60;99.90
21047;DHT22;10682;50.874;3.656;2023-02-28T06:01:35;-0.50;99.90
21047;DHT22;10682;50.874;3.656;2023-02-28T06:04:05;-0.50;99.90
21047;DHT22;10682;50.874;3.656;2023-02-28T06:06:38;-0.40;99.90
21047;DHT22;10682;50.874;3.656;2023-02-28T06:09:06;-0.40;99.90
21047;DHT22;10682;50.874;3.656;2023-02-28T06:11:33;-0.40;99.90
21047;DHT22;10682;50.874;3.656;2023-02-28T06:14:20;-0.30;99.90
21047;DHT22;10682;50.874;3.656;2023-02-28T06:16:47;-0.20;99.90
21047;DHT22;10682;50.874;3.656;2023-02-28T06:19:14;-0.20;99.90
21047;DHT22;10682;50.874;3.656;2023-02-28T06:21:42;-0.10;99.90
21047;DHT22;10682;50.874;3.656;2023-02-28T06:24:11;-0.10;99.90
21047;DHT22;10682;50.874;3.656;2023-02-28T06:26:38;-0.10;99.90
21047;DHT22;10682;50.874;3.656;2023-02-28T06:29:09;0.00;99.90
21047;DHT22;10682;50.874;3.656;2023-02-28T06:31:41;0.00;99.90
21047;DHT22;10682;50.874;3.656;2023-02-28T06:34:11;0.10;99.90
21047;DHT22;10682;50.874;3.656;2023-02-28T06:36:40;0.20;99.90
21047;DHT22;10682;50.874;3.656;2023-02-28T06:39:08;0.30;99.90
21047;DHT22;10682;50.874;3.656;2023-02-28T06:41:36;0.30;99.90
21047;DHT22;10682;50.874;3.656;2023-02-28T06:44:20;0.40;99.90
21047;DHT22;10682;50.874;3.656;2023-02-28T06:46:48;0.60;99.90
21047;DHT22;10682;50.874;3.656;2023-02-28T06:49:16;0.70;99.90
21047;DHT22;10682;50.874;3.656;2023-02-28T06:51:44;0.80;99.90
21047;DHT22;10682;50.874;3.656;2023-02-28T06:54:14;0.80;99.90
21047;DHT22;10682;50.874;3.656;2023-02-28T06:56:41;0.90;99.90
21047;DHT22;10682;50.874;3.656;2023-02-28T06:59:08;1.00;99.90
21047;DHT22;10682;50.874;3.656;2023-02-28T07:01:35;1.00;99.90
21047;DHT22;10682;50.874;3.656;2023-02-28T07:04:04;1.10;99.90
21047;DHT22;10682;50.874;3.656;2023-02-28T07:06:32;1.20;99.90
21047;DHT22;10682;50.874;3.656;2023-02-28T07:09:00;1.20;99.90
21047;DHT22;10682;50.874;3.656;2023-02-28T07:14:38;1.30;99.90
21047;DHT22;10682;50.874;3.656;2023-02-28T07:17:09;1.40;99.90
21047;DHT22;10682;50.874;3.656;2023-02-28T07:19:39;1.40;99.90
21047;DHT22;10682;50.874;3.656;2023-02-28T07:22:07;1.50;99.90
21047;DHT22;10682;50.874;3.656;2023-02-28T07:24:34;1.60;99.90
21047;DHT22;10682;50.874;3.656;2023-02-28T07:27:01;1.60;99.90
21047;DHT22;10682;50.874;3.656;2023-02-28T07:29:29;1.70;99.90
21047;DHT22;10682;50.874;3.656;2023-02-28T07:31:56;1.80;99.90
21047;DHT22;10682;50.874;3.656;2023-02-28T07:34:23;1.80;99.90
21047;DHT22;10682;50.874;3.656;2023-02-28T07:36:53;1.90;99.90
21047;DHT22;10682;50.874;3.656;2023-02-28T07:39:21;2.00;99.90
21047;DHT22;10682;50.874;3.656;2023-02-28T07:41:48;2.10;99.90
21047;DHT22;10682;50.874;3.656;2023-02-28T07:44:21;2.10;99.90
21047;DHT22;10682;50.874;3.656;2023-02-28T07:46:48;2.20;99.90
21047;DHT22;10682;50.874;3.656;2023-02-28T07:49:16;2.30;99.90
21047;DHT22;10682;50.874;3.656;2023-02-28T07:51:43;2.30;99.90
21047;DHT22;10682;50.874;3.656;2023-02-28T07:54:10;2.30;99.90
21047;DHT22;10682;50.874;3.656;2023-02-28T07:56:37;2.40;99.90
21047;DHT22;10682;50.874;3.656;2023-02-28T07:59:04;2.50;99.90
21047;DHT22;10682;50.874;3.656;2023-02-28T08:01:31;2.50;99.90
21047;DHT22;10682;50.874;3.656;2023-02-28T08:03:58;2.60;99.90
21047;DHT22;10682;50.874;3.656;2023-02-28T08:09:28;2.80;99.90
21047;DHT22;10682;50.874;3.656;2023-02-28T08:11:56;3.00;99.90
21047;DHT22;10682;50.874;3.656;2023-02-28T08:14:23;3.10;99.90
21047;DHT22;10682;50.874;3.656;2023-02-28T08:16:50;3.20;99.90
21047;DHT22;10682;50.874;3.656;2023-02-28T08:19:17;3.30;99.90
21047;DHT22;10682;50.874;3.656;2023-02-28T08:21:44;3.40;99.90
21047;DHT22;10682;50.874;3.656;2023-02-28T08:24:11;3.50;99.90
21047;DHT22;10682;50.874;3.656;2023-02-28T08:26:38;3.50;99.90
21047;DHT22;10682;50.874;3.656;2023-02-28T08:29:05;3.50;99.90
21047;DHT22;10682;50.874;3.656;2023-02-28T08:31:32;3.50;99.90
21047;DHT22;10682;50.874;3.656;2023-02-28T08:34:09;3.60;99.90
21047;DHT22;10682;50.874;3.656;2023-02-28T08:36:39;3.60;99.90
21047;DHT22;10682;50.874;3.656;2023-02-28T08:39:07;3.70;99.90
21047;DHT22;10682;50.874;3.656;2023-02-28T08:41:34;3.80;99.90
21047;DHT22;10682;50.874;3.656;2023-02-28T08:44:01;3.90;99.90
21047;DHT22;10682;50.874;3.656;2023-02-28T08:46:29;4.00;99.90
21047;DHT22;10682;50.874;3.656;2023-02-28T08:48:58;4.10;99.90
21047;DHT22;10682;50.874;3.656;2023-02-28T08:51:29;4.10;99.90
21047;DHT22;10682;50.874;3.656;2023-02-28T08:54:00;4.20;99.90
21047;DHT22;10682;50.874;3.656;2023-02-28T08:56:28;4.10;99.90
21047;DHT22;10682;50.874;3.656;2023-02-28T08:58:56;4.20;99.90
21047;DHT22;10682;50.874;3.656;2023-02-28T09:01:26;4.20;99.90
21047;DHT22;10682;50.874;3.656;2023-02-28T09:03:56;4.20;99.90
21047;DHT22;10682;50.874;3.656;2023-02-28T09:06:26;4.20;99.90
21047;DHT22;10682;50.874;3.656;2023-02-28T09:08:57;4.30;99.90
21047;DHT22;10682;50.874;3.656;2023-02-28T09:11:28;4.40;99.90
21047;DHT22;10682;50.874;3.656;2023-02-28T09:13:58;4.50;99.90
21047;DHT22;10682;50.874;3.656;2023-02-28T09:16:27;4.60;99.90
21047;DHT22;10682;50.874;3.656;2023-02-28T09:18:54;4.60;99.90
21047;DHT22;10682;50.874;3.656;2023-02-28T09:21:21;4.50;99.90
21047;DHT22;10682;50.874;3.656;2023-02-28T09:23:49;4.40;99.90
21047;DHT22;10682;50.874;3.656;2023-02-28T09:26:19;4.50;99.90
21047;DHT22;10682;50.874;3.656;2023-02-28T09:28:49;4.40;99.90
21047;DHT22;10682;50.874;3.656;2023-02-28T09:31:26;4.50;99.90
21047;DHT22;10682;50.874;3.656;2023-02-28T09:33:56;4.50;99.90
21047;DHT22;10682;50.874;3.656;2023-02-28T09:36:24;4.50;99.90
21047;DHT22;10682;50.874;3.656;2023-02-28T09:39:09;4.50;99.90
21047;DHT22;10682;50.874;3.656;2023-02-28T09:41:49;4.60;99.90
21047;DHT22;10682;50.874;3.656;2023-02-28T09:44:37;4.70;99.90
21047;DHT22;10682;50.874;3.656;2023-02-28T09:47:18;4.80;99.90
21047;DHT22;10682;50.874;3.656;2023-02-28T09:50:22;4.80;99.90
21047;DHT22;10682;50.874;3.656;2023-02-28T09:52:58;4.70;99.90
21047;DHT22;10682;50.874;3.656;2023-02-28T09:55:33;4.80;99.90
21047;DHT22;10682;50.874;3.656;2023-02-28T09:58:37;4.80;99.90
21047;DHT22;10682;50.874;3.656;2023-02-28T10:01:25;4.90;99.90
21047;DHT22;10682;50.874;3.656;2023-02-28T10:16:14;5.40;99.90
21047;DHT22;10682;50.874;3.656;2023-02-28T10:18:48;5.60;99.90
21047;DHT22;10682;50.874;3.656;2023-02-28T10:21:35;5.80;99.90
21047;DHT22;10682;50.874;3.656;2023-02-28T10:24:30;5.90;99.90
21047;DHT22;10682;50.874;3.656;2023-02-28T10:27:26;5.90;99.90
21047;DHT22;10682;50.874;3.656;2023-02-28T10:29:59;5.80;99.90
21047;DHT22;10682;50.874;3.656;2023-02-28T10:32:33;5.80;99.90
21047;DHT22;10682;50.874;3.656;2023-02-28T10:35:14;5.90;99.90
21047;DHT22;10682;50.874;3.656;2023-02-28T10:37:46;6.00;99.90
21047;DHT22;10682;50.874;3.656;2023-02-28T10:43:07;6.10;99.90
21047;DHT22;10682;50.874;3.656;2023-02-28T10:46:05;6.10;99.90
21047;DHT22;10682;50.874;3.656;2023-02-28T10:48:41;6.60;99.90
21047;DHT22;10682;50.874;3.656;2023-02-28T10:51:16;7.10;99.90
21047;DHT22;10682;50.874;3.656;2023-02-28T10:53:47;7.40;99.90
21047;DHT22;10682;50.874;3.656;2023-02-28T10:56:27;7.50;99.90
21047;DHT22;10682;50.874;3.656;2023-02-28T10:58:56;7.20;99.90
21047;DHT22;10682;50.874;3.656;2023-02-28T11:01:44;7.30;99.90
21047;DHT22;10682;50.874;3.656;2023-02-28T11:06:59;7.80;99.90
21047;DHT22;10682;50.874;3.656;2023-02-28T11:09:33;8.00;99.90
21047;DHT22;10682;50.874;3.656;2023-02-28T11:12:22;8.20;99.90
21047;DHT22;10682;50.874;3.656;2023-02-28T11:15:25;8.40;99.90
21047;DHT22;10682;50.874;3.656;2023-02-28T11:21:04;8.50;99.90
21047;DHT22;10682;50.874;3.656;2023-02-28T11:23:34;8.10;99.90
21047;DHT22;10682;50.874;3.656;2023-02-28T11:26:04;8.00;99.90
21047;DHT22;10682;50.874;3.656;2023-02-28T11:28:42;8.00;99.90
21047;DHT22;10682;50.874;3.656;2023-02-28T11:39:09;7.10;99.90
21047;DHT22;10682;50.874;3.656;2023-02-28T11:42:14;7.20;99.90
21047;DHT22;10682;50.874;3.656;2023-02-28T11:51:21;7.90;99.90
21047;DHT22;10682;50.874;3.656;2023-02-28T12:06:31;7.90;99.90
21047;DHT22;10682;50.874;3.656;2023-02-28T12:15:27;8.40;99.90
21047;DHT22;10682;50.874;3.656;2023-02-28T12:21:10;8.40;99.90
21047;DHT22;10682;50.874;3.656;2023-02-28T12:26:51;8.30;99.90
21047;DHT22;10682;50.874;3.656;2023-02-28T12:29:29;8.60;99.90
21047;DHT22;10682;50.874;3.656;2023-02-28T12:32:09;8.70;99.90
21047;DHT22;10682;50.874;3.656;2023-02-28T12:34:47;8.70;99.90
21047;DHT22;10682;50.874;3.656;2023-02-28T12:37:31;8.60;99.90
21047;DHT22;10682;50.874;3.656;2023-02-28T12:40:03;8.50;99.90
21047;DHT22;10682;50.874;3.656;2023-02-28T12:42:39;8.50;99.90
21047;DHT22;10682;50.874;3.656;2023-02-28T12:45:23;8.30;99.90
21047;DHT22;10682;50.874;3.656;2023-02-28T12:48:00;8.10;99.90
21047;DHT22;10682;50.874;3.656;2023-02-28T12:50:29;7.90;99.90
21047;DHT22;10682;50.874;3.656;2023-02-28T12:53:27;8.00;99.90
21047;DHT22;10682;50.874;3.656;2023-02-28T12:56:26;7.90;99.90
21047;DHT22;10682;50.874;3.656;2023-02-28T12:59:24;7.80;99.90
21047;DHT22;10682;50.874;3.656;2023-02-28T13:10:51;8.40;99.90
21047;DHT22;10682;50.874;3.656;2023-02-28T13:13:29;8.40;99.90
21047;DHT22;10682;50.874;3.656;2023-02-28T13:16:07;8.40;99.90
21047;DHT22;10682;50.874;3.656;2023-02-28T13:18:39;8.40;99.90
21047;DHT22;10682;50.874;3.656;2023-02-28T13:21:29;8.70;99.90
21047;DHT22;10682;50.874;3.656;2023-02-28T13:24:03;8.70;99.90
21047;DHT22;10682;50.874;3.656;2023-02-28T13:32:27;8.70;99.90
21047;DHT22;10682;50.874;3.656;2023-02-28T13:40:34;9.00;99.90
21047;DHT22;10682;50.874;3.656;2023-02-28T13:43:08;8.80;99.90
21047;DHT22;10682;50.874;3.656;2023-02-28T13:45:35;8.30;99.90
21047;DHT22;10682;50.874;3.656;2023-02-28T13:48:25;7.90;99.90
21047;DHT22;10682;50.874;3.656;2023-02-28T13:50:53;7.70;99.90
21047;DHT22;10682;50.874;3.656;2023-02-28T13:53:43;7.60;99.90
21047;DHT22;10682;50.874;3.656;2023-02-28T13:56:45;7.50;99.90
21047;DHT22;10682;50.874;3.656;2023-02-28T13:59:37;7.40;99.90
21047;DHT22;10682;50.874;3.656;2023-02-28T14:05:35;7.40;99.90
21047;DHT22;10682;50.874;3.656;2023-02-28T14:08:18;7.30;99.90
21047;DHT22;10682;50.874;3.656;2023-02-28T14:10:49;7.20;99.90
21047;DHT22;10682;50.874;3.656;2023-02-28T14:13:43;7.10;99.90
21047;DHT22;10682;50.874;3.656;2023-02-28T14:16:17;7.10;99.90
21047;DHT22;10682;50.874;3.656;2023-02-28T14:21:43;7.00;99.90
21047;DHT22;10682;50.874;3.656;2023-02-28T14:32:47;7.00;99.90
21047;DHT22;10682;50.874;3.656;2023-02-28T14:38:06;7.00;99.90
21047;DHT22;10682;50.874;3.656;2023-02-28T14:40:41;7.20;99.90
21047;DHT22;10682;50.874;3.656;2023-02-28T14:43:21;7.10;99.90
21047;DHT22;10682;50.874;3.656;2023-02-28T14:46:01;7.10;99.90
21047;DHT22;10682;50.874;3.656;2023-02-28T14:48:30;7.00;99.90
21047;DHT22;10682;50.874;3.656;2023-02-28T14:51:00;6.80;99.90
21047;DHT22;10682;50.874;3.656;2023-02-28T14:53:30;6.70;99.90
21047;DHT22;10682;50.874;3.656;2023-02-28T14:56:03;6.60;99.90
21047;DHT22;10682;50.874;3.656;2023-02-28T14:58:32;6.60;99.90
21047;DHT22;10682;50.874;3.656;2023-02-28T15:01:02;6.50;99.90
21047;DHT22;10682;50.874;3.656;2023-02-28T15:03:38;6.40;99.90
21047;DHT22;10682;50.874;3.656;2023-02-28T15:06:15;6.50;99.90
21047;DHT22;10682;50.874;3.656;2023-02-28T15:08:45;6.40;99.90
21047;DHT22;10682;50.874;3.656;2023-02-28T15:11:17;6.40;99.90
21047;DHT22;10682;50.874;3.656;2023-02-28T15:13:50;6.40;99.90
21047;DHT22;10682;50.874;3.656;2023-02-28T15:16:22;6.40;99.90
21047;DHT22;10682;50.874;3.656;2023-02-28T15:21:29;6.30;99.90
21047;DHT22;10682;50.874;3.656;2023-02-28T15:24:08;6.30;99.90
21047;DHT22;10682;50.874;3.656;2023-02-28T15:26:46;6.20;99.90
21047;DHT22;10682;50.874;3.656;2023-02-28T15:29:28;6.30;99.90
21047;DHT22;10682;50.874;3.656;2023-02-28T15:32:01;6.30;99.90
21047;DHT22;10682;50.874;3.656;2023-02-28T15:34:41;6.20;99.90
21047;DHT22;10682;50.874;3.656;2023-02-28T15:42:38;6.20;99.90
21047;DHT22;10682;50.874;3.656;2023-02-28T15:45:05;6.20;99.90
21047;DHT22;10682;50.874;3.656;2023-02-28T15:47:52;6.10;99.90
21047;DHT22;10682;50.874;3.656;2023-02-28T15:50:21;6.10;99.90
21047;DHT22;10682;50.874;3.656;2023-02-28T15:52:48;6.00;99.90
21047;DHT22;10682;50.874;3.656;2023-02-28T15:55:27;6.00;99.90
21047;DHT22;10682;50.874;3.656;2023-02-28T15:57:59;6.00;99.90
21047;DHT22;10682;50.874;3.656;2023-02-28T16:00:29;6.00;99.90
21047;DHT22;10682;50.874;3.656;2023-02-28T16:03:00;6.00;99.90
21047;DHT22;10682;50.874;3.656;2023-02-28T16:05:30;6.00;99.90
21047;DHT22;10682;50.874;3.656;2023-02-28T16:08:15;5.90;99.90
21047;DHT22;10682;50.874;3.656;2023-02-28T16:10:42;5.80;99.90
21047;DHT22;10682;50.874;3.656;2023-02-28T16:13:11;5.80;99.90
21047;DHT22;10682;50.874;3.656;2023-02-28T16:15:42;5.80;99.90
21047;DHT22;10682;50.874;3.656;2023-02-28T16:18:12;5.70;99.90
21047;DHT22;10682;50.874;3.656;2023-02-28T16:20:39;5.70;99.90
21047;DHT22;10682;50.874;3.656;2023-02-28T16:23:07;5.60;99.90
21047;DHT22;10682;50.874;3.656;2023-02-28T16:25:42;5.60;99.90
21047;DHT22;10682;50.874;3.656;2023-02-28T16:28:25;5.60;99.90
21047;DHT22;10682;50.874;3.656;2023-02-28T16:30:59;5.50;99.90
21047;DHT22;10682;50.874;3.656;2023-02-28T16:33:31;5.50;99.90
21047;DHT22;10682;50.874;3.656;2023-02-28T16:36:00;5.40;99.90
21047;DHT22;10682;50.874;3.656;2023-02-28T16:38:27;5.50;99.90
21047;DHT22;10682;50.874;3.656;2023-02-28T16:40:56;5.50;99.90
21047;DHT22;10682;50.874;3.656;2023-02-28T16:43:26;5.40;99.90
21047;DHT22;10682;50.874;3.656;2023-02-28T16:45:57;5.40;99.90
21047;DHT22;10682;50.874;3.656;2023-02-28T16:48:27;5.30;99.90
21047;DHT22;10682;50.874;3.656;2023-02-28T16:50:54;5.20;99.90
21047;DHT22;10682;50.874;3.656;2023-02-28T16:53:21;5.20;99.90
21047;DHT22;10682;50.874;3.656;2023-02-28T16:55:48;5.10;99.90
21047;DHT22;10682;50.874;3.656;2023-02-28T16:58:17;5.00;99.90
21047;DHT22;10682;50.874;3.656;2023-02-28T17:00:45;4.90;99.90
21047;DHT22;10682;50.874;3.656;2023-02-28T17:03:28;4.80;99.90
21047;DHT22;10682;50.874;3.656;2023-02-28T17:05:59;4.80;99.90
21047;DHT22;10682;50.874;3.656;2023-02-28T17:08:27;4.80;99.90
21047;DHT22;10682;50.874;3.656;2023-02-28T17:10:56;4.80;99.90
21047;DHT22;10682;50.874;3.656;2023-02-28T17:13:23;4.70;99.90
21047;DHT22;10682;50.874;3.656;2023-02-28T17:15:50;4.60;99.90
21047;DHT22;10682;50.874;3.656;2023-02-28T17:18:19;4.60;99.90
21047;DHT22;10682;50.874;3.656;2023-02-28T17:20:48;4.60;99.90
21047;DHT22;10682;50.874;3.656;2023-02-28T17:23:15;4.50;99.90
21047;DHT22;10682;50.874;3.656;2023-02-28T17:25:43;4.40;99.90
21047;DHT22;10682;50.874;3.656;2023-02-28T17:28:23;4.30;99.90
21047;DHT22;10682;50.874;3.656;2023-02-28T17:30:50;4.10;99.90
21047;DHT22;10682;50.874;3.656;2023-02-28T17:33:17;4.00;99.90
21047;DHT22;10682;50.874;3.656;2023-02-28T17:35:45;3.90;99.90
21047;DHT22;10682;50.874;3.656;2023-02-28T17:38:16;3.80;99.90
21047;DHT22;10682;50.874;3.656;2023-02-28T17:40:44;3.70;99.90
21047;DHT22;10682;50.874;3.656;2023-02-28T17:43:12;3.60;99.90
21047;DHT22;10682;50.874;3.656;2023-02-28T17:45:39;3.60;99.90
21047;DHT22;10682;50.874;3.656;2023-02-28T17:48:08;3.60;99.90
21047;DHT22;10682;50.874;3.656;2023-02-28T17:50:36;3.50;99.90
21047;DHT22;10682;50.874;3.656;2023-02-28T17:53:03;3.40;99.90
21047;DHT22;10682;50.874;3.656;2023-02-28T17:55:30;3.40;99.90
21047;DHT22;10682;50.874;3.656;2023-02-28T17:57:57;3.40;99.90
21047;DHT22;10682;50.874;3.656;2023-02-28T18:00:25;3.40;99.90
21047;DHT22;10682;50.874;3.656;2023-02-28T18:02:52;3.40;99.90
21047;DHT22;10682;50.874;3.656;2023-02-28T18:05:19;3.30;99.90
21047;DHT22;10682;50.874;3.656;2023-02-28T18:07:46;3.30;99.90
21047;DHT22;10682;50.874;3.656;2023-02-28T18:10:16;3.20;99.90
21047;DHT22;10682;50.874;3.656;2023-02-28T18:12:50;3.20;99.90
21047;DHT22;10682;50.874;3.656;2023-02-28T18:15:19;3.20;99.90
21047;DHT22;10682;50.874;3.656;2023-02-28T18:17:47;3.20;99.90
21047;DHT22;10682;50.874;3.656;2023-02-28T18:20:15;3.10;99.90
21047;DHT22;10682;50.874;3.656;2023-02-28T18:22:43;3.10;99.90
21047;DHT22;10682;50.874;3.656;2023-02-28T18:25:11;3.00;99.90
21047;DHT22;10682;50.874;3.656;2023-02-28T18:27:43;3.00;99.90
21047;DHT22;10682;50.874;3.656;2023-02-28T18:30:20;3.00;99.90
21047;DHT22;10682;50.874;3.656;2023-02-28T18:32:48;3.00;99.90
21047;DHT22;10682;50.874;3.656;2023-02-28T18:35:15;2.90;99.90
21047;DHT22;10682;50.874;3.656;2023-02-28T18:38:18;2.90;99.90
21047;DHT22;10682;50.874;3.656;2023-02-28T18:40:56;2.80;99.90
21047;DHT22;10682;50.874;3.656;2023-02-28T18:43:26;2.80;99.90
21047;DHT22;10682;50.874;3.656;2023-02-28T18:45:53;2.70;99.90
21047;DHT22;10682;50.874;3.656;2023-02-28T18:48:21;2.60;99.90